sensor_id;sensor_type;location;lat;lon;timestamp;temperature;humidity
66586;SHT30;53444;45.822;16.092;2024-01-30T00:02:19;0.04;89.60
66586;SHT30;53444;45.822;16.092;2024-01-30T00:04:45;0.02;89.57
66586;SHT30;53444;45.822;16.092;2024-01-30T00:07:13;-0.01;89.57
66586;SHT30;53444;45.822;16.092;2024-01-30T00:09:40;-0.02;89.82
66586;SHT30;53444;45.822;16.092;2024-01-30T00:12:07;-0.07;90.03
66586;SHT30;53444;45.822;16.092;2024-01-30T00:14:33;-0.10;89.69
66586;SHT30;53444;45.822;16.092;2024-01-30T00:17:00;-0.17;89.60
66586;SHT30;53444;45.822;16.092;2024-01-30T00:19:26;-0.17;90.27
66586;SHT30;53444;45.822;16.092;2024-01-30T00:21:53;-0.20;89.95
66586;SHT30;53444;45.822;16.092;2024-01-30T00:24:21;-0.20;89.85
66586;SHT30;53444;45.822;16.092;2024-01-30T00:26:48;-0.12;89.78
66586;SHT30;53444;45.822;16.092;2024-01-30T00:29:14;-0.19;89.52
66586;SHT30;53444;45.822;16.092;2024-01-30T00:31:44;-0.26;89.89
66586;SHT30;53444;45.822;16.092;2024-01-30T00:34:11;-0.49;90.49
66586;SHT30;53444;45.822;16.092;2024-01-30T00:36:38;-0.43;90.54
66586;SHT30;53444;45.822;16.092;2024-01-30T00:39:04;-0.43;90.62
66586;SHT30;53444;45.822;16.092;2024-01-30T00:41:35;-0.57;90.82
66586;SHT30;53444;45.822;16.092;2024-01-30T00:44:02;-0.45;90.93
66586;SHT30;53444;45.822;16.092;2024-01-30T00:46:28;-0.40;90.39
66586;SHT30;53444;45.822;16.092;2024-01-30T00:48:55;-0.43;90.41
66586;SHT30;53444;45.822;16.092;2024-01-30T00:51:22;-0.41;90.60
66586;SHT30;53444;45.822;16.092;2024-01-30T00:53:48;-0.36;90.54
66586;SHT30;53444;45.822;16.092;2024-01-30T00:56:15;-0.36;90.58
66586;SHT30;53444;45.822;16.092;2024-01-30T00:58:45;-0.37;90.96
66586;SHT30;53444;45.822;16.092;2024-01-30T01:01:11;-0.44;90.93
66586;SHT30;53444;45.822;16.092;2024-01-30T01:04:01;-0.40;90.98
66586;SHT30;53444;45.822;16.092;2024-01-30T01:06:45;-0.41;90.66
66586;SHT30;53444;45.822;16.092;2024-01-30T01:09:11;-0.38;90.32
66586;SHT30;53444;45.822;16.092;2024-01-30T01:11:38;-0.45;90.56
66586;SHT30;53444;45.822;16.092;2024-01-30T01:14:06;-0.40;90.34
66586;SHT30;53444;45.822;16.092;2024-01-30T01:16:33;-0.40;90.05
66586;SHT30;53444;45.822;16.092;2024-01-30T01:19:26;-0.50;90.40
66586;SHT30;53444;45.822;16.092;2024-01-30T01:22:10;-0.47;90.49
66586;SHT30;53444;45.822;16.092;2024-01-30T01:24:37;-0.52;90.30
66586;SHT30;53444;45.822;16.092;2024-01-30T01:30:23;-0.77;91.45
66586;SHT30;53444;45.822;16.092;2024-01-30T01:33:00;-0.65;91.30
66586;SHT30;53444;45.822;16.092;2024-01-30T01:35:28;-0.60;91.04
66586;SHT30;53444;45.822;16.092;2024-01-30T01:37:55;-0.63;90.90
66586;SHT30;53444;45.822;16.092;2024-01-30T01:40:22;-0.60;90.69
66586;SHT30;53444;45.822;16.092;2024-01-30T01:42:50;-0.70;90.76
66586;SHT30;53444;45.822;16.092;2024-01-30T01:45:17;-0.64;90.84
66586;SHT30;53444;45.822;16.092;2024-01-30T01:47:48;-0.70;90.63
66586;SHT30;53444;45.822;16.092;2024-01-30T01:50:17;-0.68;90.48
66586;SHT30;53444;45.822;16.092;2024-01-30T01:52:47;-0.65;90.55
66586;SHT30;53444;45.822;16.092;2024-01-30T01:55:15;-0.68;90.44
66586;SHT30;53444;45.822;16.092;2024-01-30T01:57:43;-0.67;90.69
66586;SHT30;53444;45.822;16.092;2024-01-30T02:00:10;-0.70;90.47
66586;SHT30;53444;45.822;16.092;2024-01-30T02:02:39;-0.71;90.72
66586;SHT30;53444;45.822;16.092;2024-01-30T02:05:08;-0.84;90.73
66586;SHT30;53444;45.822;16.092;2024-01-30T02:07:34;-0.84;90.57
66586;SHT30;53444;45.822;16.092;2024-01-30T02:10:01;-0.84;90.45
66586;SHT30;53444;45.822;16.092;2024-01-30T02:12:29;-0.85;91.28
66586;SHT30;53444;45.822;16.092;2024-01-30T02:14:56;-0.81;90.39
66586;SHT30;53444;45.822;16.092;2024-01-30T02:17:23;-0.80;90.64
66586;SHT30;53444;45.822;16.092;2024-01-30T02:19:50;-0.85;90.20
66586;SHT30;53444;45.822;16.092;2024-01-30T02:22:19;-0.87;90.43
66586;SHT30;53444;45.822;16.092;2024-01-30T02:24:45;-0.98;90.60
66586;SHT30;53444;45.822;16.092;2024-01-30T02:27:12;-0.96;90.67
66586;SHT30;53444;45.822;16.092;2024-01-30T02:29:39;-1.09;91.49
66586;SHT30;53444;45.822;16.092;2024-01-30T02:32:06;-1.12;91.71
66586;SHT30;53444;45.822;16.092;2024-01-30T02:34:51;-1.05;91.79
66586;SHT30;53444;45.822;16.092;2024-01-30T02:37:19;-1.06;91.87
66586;SHT30;53444;45.822;16.092;2024-01-30T02:39:55;-1.22;92.09
66586;SHT30;53444;45.822;16.092;2024-01-30T02:42:22;-1.13;92.28
66586;SHT30;53444;45.822;16.092;2024-01-30T02:44:59;-1.04;92.02
66586;SHT30;53444;45.822;16.092;2024-01-30T02:47:26;-1.02;91.61
66586;SHT30;53444;45.822;16.092;2024-01-30T02:49:53;-0.99;91.80
66586;SHT30;53444;45.822;16.092;2024-01-30T02:52:21;-1.04;91.38
66586;SHT30;53444;45.822;16.092;2024-01-30T02:54:48;-1.22;91.60
66586;SHT30;53444;45.822;16.092;2024-01-30T02:57:15;-1.20;91.56
66586;SHT30;53444;45.822;16.092;2024-01-30T02:59:42;-1.16;91.76
66586;SHT30;53444;45.822;16.092;2024-01-30T03:02:09;-1.16;91.49
66586;SHT30;53444;45.822;16.092;2024-01-30T03:04:35;-1.16;92.07
66586;SHT30;53444;45.822;16.092;2024-01-30T03:07:02;-1.15;91.49
66586;SHT30;53444;45.822;16.092;2024-01-30T03:09:30;-1.18;91.97
66586;SHT30;53444;45.822;16.092;2024-01-30T03:11:57;-1.20;91.25
66586;SHT30;53444;45.822;16.092;2024-01-30T03:14:24;-1.19;91.16
66586;SHT30;53444;45.822;16.092;2024-01-30T03:16:50;-1.32;91.53
66586;SHT30;53444;45.822;16.092;2024-01-30T03:19:17;-1.32;91.61
66586;SHT30;53444;45.822;16.092;2024-01-30T03:21:44;-1.29;91.29
66586;SHT30;53444;45.822;16.092;2024-01-30T03:24:11;-1.31;92.12
66586;SHT30;53444;45.822;16.092;2024-01-30T03:26:39;-1.34;91.39
66586;SHT30;53444;45.822;16.092;2024-01-30T03:29:06;-1.57;92.54
66586;SHT30;53444;45.822;16.092;2024-01-30T03:31:33;-1.56;92.75
66586;SHT30;53444;45.822;16.092;2024-01-30T03:34:00;-1.45;92.64
66586;SHT30;53444;45.822;16.092;2024-01-30T03:36:27;-1.42;92.62
66586;SHT30;53444;45.822;16.092;2024-01-30T03:38:54;-1.38;92.41
66586;SHT30;53444;45.822;16.092;2024-01-30T03:41:21;-1.39;92.55
66586;SHT30;53444;45.822;16.092;2024-01-30T03:43:49;-1.43;92.80
66586;SHT30;53444;45.822;16.092;2024-01-30T03:46:16;-1.35;92.75
66586;SHT30;53444;45.822;16.092;2024-01-30T03:48:42;-1.34;92.21
66586;SHT30;53444;45.822;16.092;2024-01-30T03:51:09;-1.31;92.18
66586;SHT30;53444;45.822;16.092;2024-01-30T03:53:40;-1.31;92.03
66586;SHT30;53444;45.822;16.092;2024-01-30T03:56:07;-1.35;92.34
66586;SHT30;53444;45.822;16.092;2024-01-30T03:58:33;-1.36;92.23
66586;SHT30;53444;45.822;16.092;2024-01-30T04:01:02;-1.43;92.71
66586;SHT30;53444;45.822;16.092;2024-01-30T04:03:29;-1.47;92.63
66586;SHT30;53444;45.822;16.092;2024-01-30T04:05:56;-1.42;93.00
66586;SHT30;53444;45.822;16.092;2024-01-30T04:08:22;-1.45;92.55
66586;SHT30;53444;45.822;16.092;2024-01-30T04:10:49;-1.43;92.44
66586;SHT30;53444;45.822;16.092;2024-01-30T04:13:16;-1.42;92.48
66586;SHT30;53444;45.822;16.092;2024-01-30T04:15:43;-1.46;92.04
66586;SHT30;53444;45.822;16.092;2024-01-30T04:18:11;-1.50;92.76
66586;SHT30;53444;45.822;16.092;2024-01-30T04:20:38;-1.56;92.24
66586;SHT30;53444;45.822;16.092;2024-01-30T04:23:05;-1.55;92.77
66586;SHT30;53444;45.822;16.092;2024-01-30T04:25:32;-1.52;92.19
66586;SHT30;53444;45.822;16.092;2024-01-30T04:27:58;-1.47;92.06
66586;SHT30;53444;45.822;16.092;2024-01-30T04:30:25;-1.56;91.97
66586;SHT30;53444;45.822;16.092;2024-01-30T04:32:52;-1.56;92.16
66586;SHT30;53444;45.822;16.092;2024-01-30T04:35:20;-1.66;91.99
66586;SHT30;53444;45.822;16.092;2024-01-30T04:37:51;-1.62;91.99
66586;SHT30;53444;45.822;16.092;2024-01-30T04:40:18;-1.57;91.82
66586;SHT30;53444;45.822;16.092;2024-01-30T04:42:45;-1.55;92.21
66586;SHT30;53444;45.822;16.092;2024-01-30T04:45:12;-1.59;91.87
66586;SHT30;53444;45.822;16.092;2024-01-30T04:47:38;-1.63;91.91
66586;SHT30;53444;45.822;16.092;2024-01-30T04:50:07;-1.66;92.08
66586;SHT30;53444;45.822;16.092;2024-01-30T04:52:35;-1.69;92.46
66586;SHT30;53444;45.822;16.092;2024-01-30T04:55:02;-1.70;92.16
66586;SHT30;53444;45.822;16.092;2024-01-30T04:57:29;-1.69;92.30
66586;SHT30;53444;45.822;16.092;2024-01-30T04:59:57;-1.73;92.07
66586;SHT30;53444;45.822;16.092;2024-01-30T05:02:24;-1.76;92.18
66586;SHT30;53444;45.822;16.092;2024-01-30T05:04:50;-1.76;92.17
66586;SHT30;53444;45.822;16.092;2024-01-30T05:07:17;-1.81;92.04
66586;SHT30;53444;45.822;16.092;2024-01-30T05:09:45;-1.91;92.28
66586;SHT30;53444;45.822;16.092;2024-01-30T05:12:12;-1.93;92.32
66586;SHT30;53444;45.822;16.092;2024-01-30T05:14:39;-1.84;92.11
66586;SHT30;53444;45.822;16.092;2024-01-30T05:17:06;-1.90;92.22
66586;SHT30;53444;45.822;16.092;2024-01-30T05:19:33;-1.97;92.25
66586;SHT30;53444;45.822;16.092;2024-01-30T05:22:00;-2.02;92.26
66586;SHT30;53444;45.822;16.092;2024-01-30T05:24:26;-2.07;92.45
66586;SHT30;53444;45.822;16.092;2024-01-30T05:26:55;-2.21;92.90
66586;SHT30;53444;45.822;16.092;2024-01-30T05:29:21;-2.17;92.82
66586;SHT30;53444;45.822;16.092;2024-01-30T05:31:48;-2.22;92.42
66586;SHT30;53444;45.822;16.092;2024-01-30T05:34:49;-2.17;92.48
66586;SHT30;53444;45.822;16.092;2024-01-30T05:37:16;-2.19;92.27
66586;SHT30;53444;45.822;16.092;2024-01-30T05:39:43;-2.18;92.10
66586;SHT30;53444;45.822;16.092;2024-01-30T05:42:11;-2.24;92.18
66586;SHT30;53444;45.822;16.092;2024-01-30T05:44:38;-2.31;92.41
66586;SHT30;53444;45.822;16.092;2024-01-30T05:47:05;-2.37;92.55
66586;SHT30;53444;45.822;16.092;2024-01-30T05:49:32;-2.35;92.57
66586;SHT30;53444;45.822;16.092;2024-01-30T05:52:01;-2.27;92.20
66586;SHT30;53444;45.822;16.092;2024-01-30T05:54:28;-2.29;92.20
66586;SHT30;53444;45.822;16.092;2024-01-30T05:56:55;-2.29;92.22
66586;SHT30;53444;45.822;16.092;2024-01-30T05:59:23;-2.25;91.92
66586;SHT30;53444;45.822;16.092;2024-01-30T06:01:51;-2.35;92.06
66586;SHT30;53444;45.822;16.092;2024-01-30T06:04:19;-2.34;92.12
66586;SHT30;53444;45.822;16.092;2024-01-30T06:06:49;-2.35;92.10
66586;SHT30;53444;45.822;16.092;2024-01-30T06:09:16;-2.28;91.99
66586;SHT30;53444;45.822;16.092;2024-01-30T06:11:43;-2.29;92.10
66586;SHT30;53444;45.822;16.092;2024-01-30T06:14:10;-2.19;92.45
66586;SHT30;53444;45.822;16.092;2024-01-30T06:16:38;-2.21;92.07
66586;SHT30;53444;45.822;16.092;2024-01-30T06:19:06;-2.17;92.18
66586;SHT30;53444;45.822;16.092;2024-01-30T06:21:33;-2.32;92.77
66586;SHT30;53444;45.822;16.092;2024-01-30T06:24:02;-2.39;93.66
66586;SHT30;53444;45.822;16.092;2024-01-30T06:26:29;-2.37;93.86
66586;SHT30;53444;45.822;16.092;2024-01-30T06:28:56;-2.31;93.65
66586;SHT30;53444;45.822;16.092;2024-01-30T06:31:23;-2.28;93.74
66586;SHT30;53444;45.822;16.092;2024-01-30T06:33:51;-2.27;93.50
66586;SHT30;53444;45.822;16.092;2024-01-30T06:36:18;-2.22;93.36
66586;SHT30;53444;45.822;16.092;2024-01-30T06:38:45;-2.21;93.15
66586;SHT30;53444;45.822;16.092;2024-01-30T06:41:12;-2.22;92.86
66586;SHT30;53444;45.822;16.092;2024-01-30T06:43:40;-2.19;92.55
66586;SHT30;53444;45.822;16.092;2024-01-30T06:46:07;-2.18;92.49
66586;SHT30;53444;45.822;16.092;2024-01-30T06:48:34;-2.31;92.63
66586;SHT30;53444;45.822;16.092;2024-01-30T06:51:02;-2.19;92.27
66586;SHT30;53444;45.822;16.092;2024-01-30T06:53:29;-2.19;92.17
66586;SHT30;53444;45.822;16.092;2024-01-30T06:55:57;-2.10;92.18
66586;SHT30;53444;45.822;16.092;2024-01-30T06:58:25;-2.05;92.23
66586;SHT30;53444;45.822;16.092;2024-01-30T07:00:52;-2.05;92.34
66586;SHT30;53444;45.822;16.092;2024-01-30T07:03:18;-2.02;92.21
66586;SHT30;53444;45.822;16.092;2024-01-30T07:05:45;-1.97;92.11
66586;SHT30;53444;45.822;16.092;2024-01-30T07:08:13;-1.98;92.07
66586;SHT30;53444;45.822;16.092;2024-01-30T07:10:43;-1.83;91.84
66586;SHT30;53444;45.822;16.092;2024-01-30T07:13:10;-1.80;91.66
66586;SHT30;53444;45.822;16.092;2024-01-30T07:15:38;-1.78;91.54
66586;SHT30;53444;45.822;16.092;2024-01-30T07:18:08;-1.71;91.70
66586;SHT30;53444;45.822;16.092;2024-01-30T07:20:35;-1.70;92.03
66586;SHT30;53444;45.822;16.092;2024-01-30T07:23:03;-1.60;92.07
66586;SHT30;53444;45.822;16.092;2024-01-30T07:25:51;-1.45;91.77
66586;SHT30;53444;45.822;16.092;2024-01-30T07:28:18;-1.36;91.75
66586;SHT30;53444;45.822;16.092;2024-01-30T07:30:46;-1.26;91.79
66586;SHT30;53444;45.822;16.092;2024-01-30T07:33:13;-1.19;91.77
66586;SHT30;53444;45.822;16.092;2024-01-30T07:35:40;-1.06;91.54
66586;SHT30;53444;45.822;16.092;2024-01-30T07:38:08;-1.01;91.54
66586;SHT30;53444;45.822;16.092;2024-01-30T07:40:36;-1.02;91.45
66586;SHT30;53444;45.822;16.092;2024-01-30T07:43:05;-1.04;92.07
66586;SHT30;53444;45.822;16.092;2024-01-30T07:45:32;-0.98;91.79
66586;SHT30;53444;45.822;16.092;2024-01-30T07:47:59;-0.85;91.67
66586;SHT30;53444;45.822;16.092;2024-01-30T07:50:26;-0.75;91.58
66586;SHT30;53444;45.822;16.092;2024-01-30T07:52:53;-0.64;91.40
66586;SHT30;53444;45.822;16.092;2024-01-30T07:55:21;-0.47;91.68
66586;SHT30;53444;45.822;16.092;2024-01-30T07:57:50;-0.33;91.26
66586;SHT30;53444;45.822;16.092;2024-01-30T08:00:19;-0.45;91.98
66586;SHT30;53444;45.822;16.092;2024-01-30T08:02:46;-0.43;92.40
66586;SHT30;53444;45.822;16.092;2024-01-30T08:05:13;-0.44;92.17
66586;SHT30;53444;45.822;16.092;2024-01-30T08:07:41;-0.33;91.87
66586;SHT30;53444;45.822;16.092;2024-01-30T08:10:08;-0.23;91.66
66586;SHT30;53444;45.822;16.092;2024-01-30T08:12:35;-0.22;91.83
66586;SHT30;53444;45.822;16.092;2024-01-30T08:15:04;-0.02;91.74
66586;SHT30;53444;45.822;16.092;2024-01-30T08:17:33;0.11;91.50
66586;SHT30;53444;45.822;16.092;2024-01-30T08:20:00;0.29;91.37
66586;SHT30;53444;45.822;16.092;2024-01-30T08:22:27;0.46;91.10
66586;SHT30;53444;45.822;16.092;2024-01-30T08:24:54;0.60;91.02
66586;SHT30;53444;45.822;16.092;2024-01-30T08:27:21;0.72;91.14
66586;SHT30;53444;45.822;16.092;2024-01-30T08:29:48;0.79;91.46
66586;SHT30;53444;45.822;16.092;2024-01-30T08:32:16;0.84;91.33
66586;SHT30;53444;45.822;16.092;2024-01-30T08:34:44;0.99;91.37
66586;SHT30;53444;45.822;16.092;2024-01-30T08:37:11;1.08;91.27
66586;SHT30;53444;45.822;16.092;2024-01-30T08:39:41;1.13;90.98
66586;SHT30;53444;45.822;16.092;2024-01-30T08:42:08;1.20;91.08
66586;SHT30;53444;45.822;16.092;2024-01-30T08:44:35;1.31;91.05
66586;SHT30;53444;45.822;16.092;2024-01-30T08:47:03;1.40;90.57
66586;SHT30;53444;45.822;16.092;2024-01-30T08:49:29;1.42;90.42
66586;SHT30;53444;45.822;16.092;2024-01-30T08:51:58;1.52;90.53
66586;SHT30;53444;45.822;16.092;2024-01-30T08:54:26;1.51;90.43
66586;SHT30;53444;45.822;16.092;2024-01-30T08:56:53;1.55;90.32
66586;SHT30;53444;45.822;16.092;2024-01-30T08:59:21;1.63;90.02
66586;SHT30;53444;45.822;16.092;2024-01-30T09:01:48;1.56;89.88
66586;SHT30;53444;45.822;16.092;2024-01-30T09:04:19;1.66;89.75
66586;SHT30;53444;45.822;16.092;2024-01-30T09:06:46;1.75;89.45
66586;SHT30;53444;45.822;16.092;2024-01-30T09:09:14;1.81;89.34
66586;SHT30;53444;45.822;16.092;2024-01-30T09:11:41;1.83;89.24
66586;SHT30;53444;45.822;16.092;2024-01-30T09:14:08;1.95;89.40
66586;SHT30;53444;45.822;16.092;2024-01-30T09:16:35;1.99;88.94
66586;SHT30;53444;45.822;16.092;2024-01-30T09:19:02;2.07;88.80
66586;SHT30;53444;45.822;16.092;2024-01-30T09:21:29;2.14;88.48
66586;SHT30;53444;45.822;16.092;2024-01-30T09:26:22;2.23;88.41
66586;SHT30;53444;45.822;16.092;2024-01-30T09:28:49;2.30;88.38
66586;SHT30;53444;45.822;16.092;2024-01-30T09:31:16;2.44;88.19
66586;SHT30;53444;45.822;16.092;2024-01-30T09:33:43;2.40;87.75
66586;SHT30;53444;45.822;16.092;2024-01-30T09:36:13;2.53;87.68
66586;SHT30;53444;45.822;16.092;2024-01-30T09:38:44;2.62;86.96
66586;SHT30;53444;45.822;16.092;2024-01-30T09:41:11;2.83;88.28
66586;SHT30;53444;45.822;16.092;2024-01-30T09:43:42;3.01;87.36
66586;SHT30;53444;45.822;16.092;2024-01-30T09:46:15;3.05;86.49
66586;SHT30;53444;45.822;16.092;2024-01-30T09:48:43;3.16;86.35
66586;SHT30;53444;45.822;16.092;2024-01-30T09:51:14;3.26;86.51
66586;SHT30;53444;45.822;16.092;2024-01-30T09:53:42;3.39;86.21
66586;SHT30;53444;45.822;16.092;2024-01-30T09:56:09;3.55;86.21
66586;SHT30;53444;45.822;16.092;2024-01-30T09:58:37;3.63;85.36
66586;SHT30;53444;45.822;16.092;2024-01-30T10:01:08;3.67;84.52
66586;SHT30;53444;45.822;16.092;2024-01-30T10:03:35;3.74;84.91
66586;SHT30;53444;45.822;16.092;2024-01-30T10:06:02;3.74;84.34
66586;SHT30;53444;45.822;16.092;2024-01-30T10:08:29;3.78;83.92
66586;SHT30;53444;45.822;16.092;2024-01-30T10:10:58;3.66;83.98
66586;SHT30;53444;45.822;16.092;2024-01-30T10:13:27;3.87;84.02
66586;SHT30;53444;45.822;16.092;2024-01-30T10:15:54;4.12;84.14
66586;SHT30;53444;45.822;16.092;2024-01-30T10:18:24;4.29;83.03
66586;SHT30;53444;45.822;16.092;2024-01-30T10:20:51;4.28;82.06
66586;SHT30;53444;45.822;16.092;2024-01-30T10:23:19;4.31;81.87
66586;SHT30;53444;45.822;16.092;2024-01-30T10:25:46;4.53;81.26
66586;SHT30;53444;45.822;16.092;2024-01-30T10:28:13;4.79;81.34
66586;SHT30;53444;45.822;16.092;2024-01-30T10:30:40;4.76;80.75
66586;SHT30;53444;45.822;16.092;2024-01-30T10:33:08;4.82;80.77
66586;SHT30;53444;45.822;16.092;2024-01-30T10:35:36;5.00;79.86
66586;SHT30;53444;45.822;16.092;2024-01-30T10:38:05;5.28;79.34
66586;SHT30;53444;45.822;16.092;2024-01-30T10:40:34;5.24;78.82
66586;SHT30;53444;45.822;16.092;2024-01-30T10:43:03;5.30;79.12
66586;SHT30;53444;45.822;16.092;2024-01-30T10:45:32;5.62;78.55
66586;SHT30;53444;45.822;16.092;2024-01-30T10:48:01;5.93;77.99
66586;SHT30;53444;45.822;16.092;2024-01-30T10:50:30;6.15;76.09
66586;SHT30;53444;45.822;16.092;2024-01-30T10:53:00;6.32;75.96
66586;SHT30;53444;45.822;16.092;2024-01-30T10:55:28;6.54;75.70
66586;SHT30;53444;45.822;16.092;2024-01-30T10:57:56;6.54;74.79
66586;SHT30;53444;45.822;16.092;2024-01-30T11:00:24;6.77;74.44
66586;SHT30;53444;45.822;16.092;2024-01-30T11:02:52;6.70;74.52
66586;SHT30;53444;45.822;16.092;2024-01-30T11:05:24;6.71;74.50
66586;SHT30;53444;45.822;16.092;2024-01-30T11:07:52;7.04;73.73
66586;SHT30;53444;45.822;16.092;2024-01-30T11:10:20;6.98;73.43
66586;SHT30;53444;45.822;16.092;2024-01-30T11:12:47;7.12;73.08
66586;SHT30;53444;45.822;16.092;2024-01-30T11:15:17;7.59;71.70
66586;SHT30;53444;45.822;16.092;2024-01-30T11:17:45;7.60;70.66
66586;SHT30;53444;45.822;16.092;2024-01-30T11:20:19;7.86;70.72
66586;SHT30;53444;45.822;16.092;2024-01-30T11:22:46;7.70;70.53
66586;SHT30;53444;45.822;16.092;2024-01-30T11:25:17;7.87;70.44
66586;SHT30;53444;45.822;16.092;2024-01-30T11:27:47;8.12;68.94
66586;SHT30;53444;45.822;16.092;2024-01-30T11:30:23;7.67;70.19
66586;SHT30;53444;45.822;16.092;2024-01-30T11:33:04;8.14;69.67
66586;SHT30;53444;45.822;16.092;2024-01-30T11:35:32;8.31;69.47
66586;SHT30;53444;45.822;16.092;2024-01-30T11:38:01;8.17;68.70
66586;SHT30;53444;45.822;16.092;2024-01-30T11:43:55;8.45;68.76
66586;SHT30;53444;45.822;16.092;2024-01-30T11:46:25;8.65;68.04
66586;SHT30;53444;45.822;16.092;2024-01-30T11:48:52;8.51;67.91
66586;SHT30;53444;45.822;16.092;2024-01-30T11:51:19;8.82;68.09
66586;SHT30;53444;45.822;16.092;2024-01-30T11:53:49;9.02;67.27
66586;SHT30;53444;45.822;16.092;2024-01-30T11:56:17;9.26;66.90
66586;SHT30;53444;45.822;16.092;2024-01-30T11:58:43;9.43;66.35
66586;SHT30;53444;45.822;16.092;2024-01-30T12:01:12;9.06;66.22
66586;SHT30;53444;45.822;16.092;2024-01-30T12:03:39;9.04;65.26
66586;SHT30;53444;45.822;16.092;2024-01-30T12:06:06;9.30;65.58
66586;SHT30;53444;45.822;16.092;2024-01-30T12:08:33;9.43;65.35
66586;SHT30;53444;45.822;16.092;2024-01-30T12:11:00;9.94;64.06
66586;SHT30;53444;45.822;16.092;2024-01-30T12:13:31;9.68;64.06
66586;SHT30;53444;45.822;16.092;2024-01-30T12:15:58;9.75;63.79
66586;SHT30;53444;45.822;16.092;2024-01-30T12:18:26;10.06;63.42
66586;SHT30;53444;45.822;16.092;2024-01-30T12:20:59;10.25;62.57
66586;SHT30;53444;45.822;16.092;2024-01-30T12:23:27;10.49;63.10
66586;SHT30;53444;45.822;16.092;2024-01-30T12:25:54;10.70;62.67
66586;SHT30;53444;45.822;16.092;2024-01-30T12:28:21;10.81;61.71
66586;SHT30;53444;45.822;16.092;2024-01-30T12:30:48;10.83;62.05
66586;SHT30;53444;45.822;16.092;2024-01-30T12:33:16;11.39;60.45
66586;SHT30;53444;45.822;16.092;2024-01-30T12:35:47;10.84;60.59
66586;SHT30;53444;45.822;16.092;2024-01-30T12:38:14;11.28;60.96
66586;SHT30;53444;45.822;16.092;2024-01-30T12:40:41;11.12;59.88
66586;SHT30;53444;45.822;16.092;2024-01-30T12:43:08;11.32;60.85
66586;SHT30;53444;45.822;16.092;2024-01-30T12:45:36;11.45;59.96
66586;SHT30;53444;45.822;16.092;2024-01-30T12:48:05;11.42;59.58
66586;SHT30;53444;45.822;16.092;2024-01-30T12:50:32;11.86;58.89
66586;SHT30;53444;45.822;16.092;2024-01-30T12:53:00;11.96;58.00
66586;SHT30;53444;45.822;16.092;2024-01-30T12:55:27;12.07;58.08
66586;SHT30;53444;45.822;16.092;2024-01-30T12:57:55;11.78;59.27
66586;SHT30;53444;45.822;16.092;2024-01-30T13:00:26;11.96;58.81
66586;SHT30;53444;45.822;16.092;2024-01-30T13:02:54;12.21;58.38
66586;SHT30;53444;45.822;16.092;2024-01-30T13:05:24;11.68;59.36
66586;SHT30;53444;45.822;16.092;2024-01-30T13:07:51;12.03;58.56
66586;SHT30;53444;45.822;16.092;2024-01-30T13:10:20;12.27;58.27
66586;SHT30;53444;45.822;16.092;2024-01-30T13:12:47;10.42;61.55
66586;SHT30;53444;45.822;16.092;2024-01-30T13:15:14;11.06;60.60
66586;SHT30;53444;45.822;16.092;2024-01-30T13:17:40;11.91;59.26
66586;SHT30;53444;45.822;16.092;2024-01-30T13:20:09;11.96;58.27
66586;SHT30;53444;45.822;16.092;2024-01-30T13:22:38;11.14;58.32
66586;SHT30;53444;45.822;16.092;2024-01-30T13:25:06;11.25;60.37
66586;SHT30;53444;45.822;16.092;2024-01-30T13:27:35;11.72;59.37
66586;SHT30;53444;45.822;16.092;2024-01-30T13:30:06;11.62;58.88
66586;SHT30;53444;45.822;16.092;2024-01-30T13:32:33;12.12;57.49
66586;SHT30;53444;45.822;16.092;2024-01-30T13:35:00;12.07;58.32
66586;SHT30;53444;45.822;16.092;2024-01-30T13:37:27;12.58;57.35
66586;SHT30;53444;45.822;16.092;2024-01-30T13:39:54;12.27;56.70
66586;SHT30;53444;45.822;16.092;2024-01-30T13:42:20;12.03;57.57
66586;SHT30;53444;45.822;16.092;2024-01-30T13:44:50;12.37;56.44
66586;SHT30;53444;45.822;16.092;2024-01-30T13:47:17;12.84;54.62
66586;SHT30;53444;45.822;16.092;2024-01-30T13:49:47;13.19;54.73
66586;SHT30;53444;45.822;16.092;2024-01-30T13:52:13;13.33;54.29
66586;SHT30;53444;45.822;16.092;2024-01-30T13:54:40;12.95;54.60
66586;SHT30;53444;45.822;16.092;2024-01-30T13:57:07;13.36;53.84
66586;SHT30;53444;45.822;16.092;2024-01-30T13:59:34;13.40;53.45
66586;SHT30;53444;45.822;16.092;2024-01-30T14:02:03;13.66;52.90
66586;SHT30;53444;45.822;16.092;2024-01-30T14:04:29;12.54;53.62
66586;SHT30;53444;45.822;16.092;2024-01-30T14:06:56;13.29;53.90
66586;SHT30;53444;45.822;16.092;2024-01-30T14:09:23;13.59;53.14
66586;SHT30;53444;45.822;16.092;2024-01-30T14:11:50;13.67;53.44
66586;SHT30;53444;45.822;16.092;2024-01-30T14:14:18;14.07;52.20
66586;SHT30;53444;45.822;16.092;2024-01-30T14:16:45;14.36;52.19
66586;SHT30;53444;45.822;16.092;2024-01-30T14:19:13;14.49;50.97
66586;SHT30;53444;45.822;16.092;2024-01-30T14:21:40;14.17;51.49
66586;SHT30;53444;45.822;16.092;2024-01-30T14:24:07;14.45;51.16
66586;SHT30;53444;45.822;16.092;2024-01-30T14:26:33;13.93;52.59
66586;SHT30;53444;45.822;16.092;2024-01-30T14:29:00;14.22;52.31
66586;SHT30;53444;45.822;16.092;2024-01-30T14:31:27;14.61;50.04
66586;SHT30;53444;45.822;16.092;2024-01-30T14:33:54;13.49;51.90
66586;SHT30;53444;45.822;16.092;2024-01-30T14:36:23;14.31;51.19
66586;SHT30;53444;45.822;16.092;2024-01-30T14:38:53;14.36;50.98
66586;SHT30;53444;45.822;16.092;2024-01-30T14:41:20;14.79;50.55
66586;SHT30;53444;45.822;16.092;2024-01-30T14:43:47;14.56;49.90
66586;SHT30;53444;45.822;16.092;2024-01-30T14:46:15;13.69;51.83
66586;SHT30;53444;45.822;16.092;2024-01-30T14:48:42;14.52;50.03
66586;SHT30;53444;45.822;16.092;2024-01-30T14:51:09;14.36;50.88
66586;SHT30;53444;45.822;16.092;2024-01-30T14:53:38;14.21;50.92
66586;SHT30;53444;45.822;16.092;2024-01-30T14:56:05;13.80;51.62
66586;SHT30;53444;45.822;16.092;2024-01-30T14:58:32;13.87;51.14
66586;SHT30;53444;45.822;16.092;2024-01-30T15:01:00;13.63;51.76
66586;SHT30;53444;45.822;16.092;2024-01-30T15:03:27;13.53;51.66
66586;SHT30;53444;45.822;16.092;2024-01-30T15:05:54;13.42;52.35
66586;SHT30;53444;45.822;16.092;2024-01-30T15:08:21;13.47;51.82
66586;SHT30;53444;45.822;16.092;2024-01-30T15:10:50;12.77;52.10
66586;SHT30;53444;45.822;16.092;2024-01-30T15:13:17;13.05;51.59
66586;SHT30;53444;45.822;16.092;2024-01-30T15:15:44;13.32;51.69
66586;SHT30;53444;45.822;16.092;2024-01-30T15:18:11;12.92;52.72
66586;SHT30;53444;45.822;16.092;2024-01-30T15:20:37;13.03;52.57
66586;SHT30;53444;45.822;16.092;2024-01-30T15:23:04;12.17;54.25
66586;SHT30;53444;45.822;16.092;2024-01-30T15:25:31;12.19;54.46
66586;SHT30;53444;45.822;16.092;2024-01-30T15:27:59;11.89;55.42
66586;SHT30;53444;45.822;16.092;2024-01-30T15:30:26;11.59;56.71
66586;SHT30;53444;45.822;16.092;2024-01-30T15:32:53;10.93;58.32
66586;SHT30;53444;45.822;16.092;2024-01-30T15:35:20;10.81;58.42